createdAt,value
2022-08-10T00:00:56.165Z,2.13
2022-08-10T00:03:23.534Z,1.83
2022-08-10T00:05:52.534Z,2.28
2022-08-10T00:08:22.714Z,2.30
2022-08-10T00:10:51.836Z,2.22
2022-08-10T00:13:18.660Z,3.05
2022-08-10T00:15:54.154Z,2.28
2022-08-10T00:18:31.297Z,2.97
2022-08-10T00:21:04.701Z,2.70
2022-08-10T00:23:31.583Z,2.67
2022-08-10T00:25:58.715Z,2.60
2022-08-10T00:28:25.833Z,2.50
2022-08-10T00:30:52.701Z,2.50
2022-08-10T00:33:21.122Z,2.92
2022-08-10T00:35:49.792Z,2.30
2022-08-10T00:38:16.731Z,2.25
2022-08-10T00:40:43.611Z,2.28
2022-08-10T00:43:10.476Z,2.45
2022-08-10T00:45:37.291Z,2.80
2022-08-10T00:48:04.767Z,2.83
2022-08-10T00:50:32.364Z,2.65
2022-08-10T00:53:00.727Z,2.33
2022-08-10T00:55:27.757Z,2.40
2022-08-10T00:57:56.701Z,2.35
2022-08-10T01:00:24.185Z,2.55
2022-08-10T01:02:51.422Z,2.50
2022-08-10T01:05:20.753Z,2.55
2022-08-10T01:08:10.518Z,2.92
2022-08-10T01:10:52.551Z,3.33
2022-08-10T01:13:26.506Z,3.00
2022-08-10T01:15:59.587Z,3.10
2022-08-10T01:18:40.207Z,2.80
2022-08-10T01:21:29.380Z,2.78
2022-08-10T01:24:39.302Z,2.72
2022-08-10T01:27:27.382Z,3.28
2022-08-10T01:30:02.199Z,3.22
2022-08-10T01:32:37.469Z,3.17
2022-08-10T01:37:43.901Z,2.63
2022-08-10T01:40:25.146Z,2.90
2022-08-10T01:42:54.836Z,2.65
2022-08-10T01:45:29.982Z,3.03
2022-08-10T01:48:34.483Z,2.97
2022-08-10T01:51:16.185Z,3.15
2022-08-10T01:53:47.252Z,2.83
2022-08-10T01:56:17.330Z,2.53
2022-08-10T01:58:46.611Z,2.60
2022-08-10T02:01:17.889Z,2.53
2022-08-10T02:04:03.107Z,2.40
2022-08-10T02:06:35.293Z,2.30
2022-08-10T02:09:06.275Z,2.35
2022-08-10T02:12:06.789Z,2.45
2022-08-10T02:14:22.752Z,1.88
2022-08-10T02:16:52.593Z,2.13
2022-08-10T02:19:22.559Z,2.00
2022-08-10T02:22:36.242Z,2.20
2022-08-10T02:24:43.485Z,2.08
2022-08-10T02:27:13.562Z,2.50
2022-08-10T02:29:42.792Z,2.40
2022-08-10T02:32:13.723Z,2.30
2022-08-10T02:35:00.076Z,2.28
2022-08-10T02:37:31.009Z,1.90
2022-08-10T02:39:57.939Z,1.95
2022-08-10T02:45:27.818Z,2.85
2022-08-10T02:45:31.155Z,2.15
2022-08-10T02:48:03.433Z,2.13
2022-08-10T02:50:34.523Z,2.35
2022-08-10T02:53:05.487Z,2.28
2022-08-10T02:55:37.396Z,2.20
2022-08-10T02:58:15.258Z,2.00
2022-08-10T03:00:49.839Z,2.30
2022-08-10T03:03:23.698Z,2.28
2022-08-10T03:05:54.957Z,2.20
2022-08-10T03:08:27.465Z,2.38
2022-08-10T03:10:56.916Z,2.53
2022-08-10T03:13:24.534Z,2.42
2022-08-10T03:15:52.169Z,2.55
2022-08-10T03:18:24.668Z,3.10
2022-08-10T03:20:52.917Z,2.88
2022-08-10T03:23:23.447Z,2.90
2022-08-10T03:25:54.855Z,3.08
2022-08-10T03:28:22.832Z,3.10
2022-08-10T03:30:50.661Z,2.97
2022-08-10T03:33:18.068Z,2.97
2022-08-10T03:36:43.673Z,2.95
2022-08-10T03:38:33.596Z,3.30
2022-08-10T03:41:03.949Z,3.20
2022-08-10T03:43:31.838Z,2.78
2022-08-10T03:46:02.023Z,3.08
2022-08-10T03:48:32.118Z,2.92
2022-08-10T03:51:16.726Z,3.20
2022-08-10T03:54:03.395Z,3.28
2022-08-10T03:56:33.174Z,3.50
2022-08-10T03:59:00.748Z,3.80
2022-08-10T04:02:43.352Z,3.40
2022-08-10T04:04:22.468Z,3.50
2022-08-10T04:06:54.819Z,3.45
2022-08-10T04:09:22.894Z,3.35
2022-08-10T04:11:49.685Z,3.53
2022-08-10T04:14:38.355Z,3.83
2022-08-10T04:19:34.496Z,3.80
2022-08-10T04:22:09.064Z,4.70
2022-08-10T04:24:38.138Z,4.50
2022-08-10T04:27:05.413Z,4.50
2022-08-10T04:29:32.749Z,5.07
2022-08-10T04:32:00.879Z,4.75
2022-08-10T04:34:31.947Z,4.75
2022-08-10T04:37:04.304Z,5.30
2022-08-10T04:39:35.195Z,5.30
2022-08-10T04:42:02.401Z,5.22
2022-08-10T04:44:29.574Z,5.18
2022-08-10T04:46:59.143Z,5.97
2022-08-10T04:49:54.343Z,6.10
2022-08-10T04:52:13.761Z,6.10
2022-08-10T04:54:42.007Z,6.35
2022-08-10T04:57:09.037Z,6.07
2022-08-10T04:59:36.111Z,5.57
2022-08-10T05:02:27.069Z,5.88
2022-08-10T05:04:50.087Z,6.13
2022-08-10T05:07:18.388Z,6.38
2022-08-10T05:10:00.986Z,5.55
2022-08-10T05:12:35.966Z,6.15
2022-08-10T05:15:06.244Z,6.30
2022-08-10T05:17:33.910Z,6.70
2022-08-10T05:20:01.708Z,6.50
2022-08-10T05:22:32.375Z,6.22
2022-08-10T05:25:00.636Z,5.45
2022-08-10T05:27:27.546Z,5.38
2022-08-10T05:30:02.627Z,5.72
2022-08-10T05:32:30.550Z,6.07
2022-08-10T05:34:57.919Z,6.43
2022-08-10T05:38:10.741Z,5.63
2022-08-10T05:40:13.994Z,5.18
2022-08-10T05:42:41.388Z,5.68
2022-08-10T05:45:16.786Z,5.68
2022-08-10T05:48:58.083Z,6.00
2022-08-10T05:50:34.857Z,6.50
2022-08-10T05:53:23.087Z,5.72
2022-08-10T05:55:50.373Z,5.60
2022-08-10T05:58:17.233Z,5.57
2022-08-10T06:00:50.145Z,5.50
2022-08-10T06:03:24.176Z,5.95
2022-08-10T06:05:54.837Z,6.75
2022-08-10T06:08:26.948Z,6.43
2022-08-10T06:11:03.174Z,6.22
2022-08-10T06:14:13.704Z,6.88
2022-08-10T06:16:44.944Z,5.70
2022-08-10T06:19:14.958Z,6.43
2022-08-10T06:21:55.012Z,5.78
2022-08-10T06:24:31.110Z,6.60
2022-08-10T06:27:00.145Z,5.90
2022-08-10T06:29:30.857Z,6.88
2022-08-10T06:31:59.780Z,6.22
2022-08-10T06:34:30.476Z,6.95
2022-08-10T06:37:01.272Z,6.75
2022-08-10T06:39:36.465Z,7.05
2022-08-10T06:42:16.492Z,6.38
2022-08-10T06:44:57.943Z,6.50
2022-08-10T06:47:28.992Z,5.95
2022-08-10T06:50:00.362Z,6.35
2022-08-10T06:52:32.886Z,6.28
2022-08-10T06:55:05.157Z,6.40
2022-08-10T06:57:37.487Z,6.18
2022-08-10T07:00:06.783Z,6.32
2022-08-10T07:05:08.713Z,5.53
2022-08-10T07:07:39.434Z,5.22
2022-08-10T07:10:09.180Z,5.53
2022-08-10T07:12:39.058Z,5.90
2022-08-10T07:15:08.788Z,5.57
2022-08-10T07:17:39.495Z,5.80
2022-08-10T07:20:09.481Z,6.38
2022-08-10T07:23:08.738Z,5.63
2022-08-10T07:25:27.543Z,5.78
2022-08-10T07:28:01.929Z,5.43
2022-08-10T07:30:31.705Z,6.18
2022-08-10T07:33:00.482Z,5.72
2022-08-10T07:35:33.170Z,5.60
2022-08-10T07:38:05.663Z,5.45
2022-08-10T07:40:34.157Z,4.70
2022-08-10T07:43:03.259Z,4.82
2022-08-10T07:45:33.277Z,5.20
2022-08-10T07:48:07.276Z,5.68
2022-08-10T07:50:37.566Z,5.50
2022-08-10T07:53:07.731Z,5.47
2022-08-10T07:56:01.565Z,5.05
2022-08-10T07:58:28.674Z,5.07
2022-08-10T08:00:57.591Z,4.80
2022-08-10T08:03:26.824Z,4.63
2022-08-10T08:08:33.259Z,3.92
2022-08-10T08:11:00.705Z,4.78
2022-08-10T08:13:30.208Z,3.50
2022-08-10T08:16:20.182Z,3.70
2022-08-10T08:18:54.320Z,3.40
2022-08-10T08:24:04.927Z,3.80
2022-08-10T08:24:30.999Z,4.00
2022-08-10T08:27:01.441Z,3.13
2022-08-10T08:29:33.318Z,3.20
2022-08-10T08:32:02.713Z,3.35
2022-08-10T08:34:31.627Z,2.97
2022-08-10T08:37:00.835Z,3.47
2022-08-10T08:39:27.947Z,3.30
2022-08-10T08:42:13.438Z,2.95
2022-08-10T08:44:59.413Z,3.00
2022-08-10T08:48:04.537Z,2.78
2022-08-10T08:50:45.068Z,2.42
2022-08-10T08:54:02.106Z,3.20
2022-08-10T08:56:19.308Z,3.17
2022-08-10T08:59:02.304Z,3.03
2022-08-10T09:01:50.287Z,2.92
2022-08-10T09:04:33.068Z,3.28
2022-08-10T09:08:00.555Z,3.05
2022-08-10T09:10:19.779Z,3.10
2022-08-10T09:12:52.832Z,3.60
2022-08-10T09:15:39.458Z,2.80
2022-08-10T09:18:16.305Z,3.50
2022-08-10T09:20:49.314Z,3.08
2022-08-10T09:24:04.919Z,3.53
2022-08-10T09:26:18.687Z,2.90
2022-08-10T09:28:46.249Z,2.72
2022-08-10T09:31:41.191Z,3.42
2022-08-10T09:36:26.779Z,2.90
2022-08-10T09:37:39.915Z,3.20
2022-08-10T09:41:00.891Z,3.20
2022-08-10T09:43:26.807Z,3.25
2022-08-10T09:46:02.926Z,3.25
2022-08-10T09:48:40.363Z,3.22
2022-08-10T09:54:16.147Z,3.10
2022-08-10T09:56:49.943Z,2.72
2022-08-10T10:00:01.976Z,2.92
2022-08-10T10:02:34.536Z,2.60
2022-08-10T10:05:10.850Z,3.50
2022-08-10T10:07:45.315Z,2.80
2022-08-10T10:10:16.844Z,2.53
2022-08-10T10:12:53.124Z,2.85
2022-08-10T10:15:30.832Z,2.72
2022-08-10T10:18:20.214Z,2.88
2022-08-10T10:20:56.049Z,3.08
2022-08-10T10:23:35.247Z,2.83
2022-08-10T10:26:17.682Z,2.50
2022-08-10T10:29:24.854Z,2.72
2022-08-10T10:31:54.664Z,3.20
2022-08-10T10:34:33.591Z,2.60
2022-08-10T10:37:01.705Z,2.40
2022-08-10T10:39:31.722Z,2.17
2022-08-10T10:42:34.978Z,2.50
2022-08-10T10:45:11.610Z,2.30
2022-08-10T10:47:53.915Z,2.45
2022-08-10T10:50:29.233Z,2.38
2022-08-10T10:53:06.378Z,2.45
2022-08-10T10:55:49.977Z,2.53
2022-08-10T10:58:36.635Z,2.10
2022-08-10T11:01:11.192Z,1.92
2022-08-10T11:06:21.224Z,2.58
2022-08-10T11:08:53.981Z,2.85
2022-08-10T11:12:00.431Z,2.20
2022-08-10T11:14:29.179Z,2.42
2022-08-10T11:17:03.128Z,2.45
2022-08-10T11:20:00.247Z,2.47
2022-08-10T11:22:36.860Z,2.75
2022-08-10T11:25:11.840Z,2.40
2022-08-10T11:27:48.987Z,2.45
2022-08-10T11:30:20.365Z,1.90
2022-08-10T11:33:00.725Z,2.15
2022-08-10T11:38:34.160Z,2.75
2022-08-10T11:42:05.391Z,2.58
2022-08-10T11:44:04.263Z,2.60
2022-08-10T11:46:33.573Z,2.47
2022-08-10T11:49:06.525Z,2.80
2022-08-10T11:51:44.726Z,2.50
2022-08-10T11:54:21.726Z,2.47
2022-08-10T11:56:51.624Z,2.20
2022-08-10T11:59:42.402Z,2.78
2022-08-10T12:02:12.964Z,2.83
2022-08-10T12:04:42.027Z,2.40
2022-08-10T12:10:06.815Z,2.60
2022-08-10T12:10:10.885Z,2.13
2022-08-10T12:12:45.050Z,1.80
2022-08-10T12:15:19.748Z,2.05
2022-08-10T12:17:52.362Z,1.80
2022-08-10T12:20:27.807Z,1.67
2022-08-10T12:23:00.214Z,1.83
2022-08-10T12:25:56.296Z,1.73
2022-08-10T12:28:49.910Z,1.83
2022-08-10T12:31:19.268Z,2.20
2022-08-10T12:34:02.138Z,1.88
2022-08-10T12:36:36.655Z,2.00
2022-08-10T12:39:07.751Z,2.30
2022-08-10T12:41:43.886Z,2.00
2022-08-10T12:44:16.108Z,1.60
2022-08-10T12:46:53.095Z,1.85
2022-08-10T12:49:26.415Z,1.48
2022-08-10T12:52:01.024Z,2.00
2022-08-10T12:54:34.045Z,1.25
2022-08-10T12:57:05.551Z,1.50
2022-08-10T12:59:33.207Z,1.58
2022-08-10T13:02:20.405Z,1.83
2022-08-10T13:04:52.012Z,1.60
2022-08-10T13:08:24.231Z,1.98
2022-08-10T13:10:14.437Z,1.40
2022-08-10T13:12:45.253Z,1.50
2022-08-10T13:15:45.100Z,1.40
2022-08-10T13:18:18.378Z,1.13
2022-08-10T13:20:50.708Z,1.50
2022-08-10T13:23:22.246Z,1.33
2022-08-10T13:25:52.012Z,1.30
2022-08-10T13:28:37.716Z,1.65
2022-08-10T13:31:16.243Z,1.67
2022-08-10T13:34:40.733Z,1.35
2022-08-10T13:36:38.572Z,1.88
2022-08-10T13:39:07.285Z,1.17
2022-08-10T13:41:39.826Z,1.20
2022-08-10T13:44:09.663Z,1.23
2022-08-10T13:46:40.432Z,1.60
2022-08-10T13:49:11.298Z,1.20
2022-08-10T13:51:54.259Z,1.48
2022-08-10T13:54:28.084Z,1.15
2022-08-10T13:56:56.315Z,1.27
2022-08-10T14:00:34.162Z,1.40
2022-08-10T14:02:22.890Z,1.52
2022-08-10T14:04:54.335Z,1.23
2022-08-10T14:07:23.235Z,1.13
2022-08-10T14:09:52.345Z,1.50
2022-08-10T14:12:33.518Z,1.40
2022-08-10T14:15:13.483Z,1.35
2022-08-10T14:17:44.937Z,1.70
2022-08-10T14:20:20.899Z,1.40
2022-08-10T14:22:49.082Z,1.60
2022-08-10T14:25:17.033Z,1.50
2022-08-10T14:28:02.476Z,1.30
2022-08-10T14:30:33.135Z,1.42
2022-08-10T14:33:04.604Z,1.67
2022-08-10T14:36:19.561Z,1.48
2022-08-10T14:38:32.195Z,1.40
2022-08-10T14:41:01.463Z,1.38
2022-08-10T14:43:33.732Z,1.40
2022-08-10T14:46:04.348Z,1.40
2022-08-10T14:48:35.163Z,1.52
2022-08-10T14:51:07.878Z,1.23
2022-08-10T14:53:36.697Z,1.75
2022-08-10T14:56:08.820Z,1.20
2022-08-10T14:58:38.875Z,2.13
2022-08-10T15:01:25.906Z,1.60
2022-08-10T15:04:17.080Z,1.50
2022-08-10T15:06:54.954Z,1.33
2022-08-10T15:09:25.404Z,1.40
2022-08-10T15:12:15.712Z,1.35
2022-08-10T15:14:45.810Z,1.63
2022-08-10T15:17:17.173Z,1.52
2022-08-10T15:20:02.302Z,1.65
2022-08-10T15:22:38.429Z,1.40
2022-08-10T15:25:18.882Z,1.58
2022-08-10T15:27:54.600Z,1.60
2022-08-10T15:30:30.570Z,1.73
2022-08-10T15:33:21.701Z,1.30
2022-08-10T15:36:27.376Z,1.65
2022-08-10T15:39:01.636Z,1.67
2022-08-10T15:41:58.679Z,1.70
2022-08-10T15:44:37.441Z,1.65
2022-08-10T15:47:08.148Z,1.30
2022-08-10T15:49:41.963Z,1.83
2022-08-10T15:52:39.235Z,1.90
2022-08-10T15:55:41.894Z,1.23
2022-08-10T15:58:03.364Z,1.40
2022-08-10T16:00:33.572Z,1.50
2022-08-10T16:03:07.701Z,1.80
2022-08-10T16:06:01.876Z,1.90
2022-08-10T16:08:56.552Z,1.50
2022-08-10T16:11:37.836Z,2.13
2022-08-10T16:14:17.355Z,2.22
2022-08-10T16:16:50.095Z,2.20
2022-08-10T16:19:25.089Z,2.45
2022-08-10T16:21:58.899Z,1.95
2022-08-10T16:24:31.245Z,2.33
2022-08-10T16:27:03.970Z,1.88
2022-08-10T16:29:32.770Z,2.15
2022-08-10T16:32:21.201Z,2.30
2022-08-10T16:34:52.110Z,2.60
2022-08-10T16:37:20.313Z,2.17
2022-08-10T16:39:57.803Z,2.05
2022-08-10T16:42:31.525Z,2.25
2022-08-10T16:45:03.047Z,1.77
2022-08-10T16:47:32.680Z,1.98
2022-08-10T16:50:02.480Z,2.40
2022-08-10T16:52:32.335Z,2.05
2022-08-10T16:55:09.561Z,2.63
2022-08-10T16:57:56.009Z,2.40
2022-08-10T17:00:24.872Z,2.50
2022-08-10T17:02:55.172Z,2.20
2022-08-10T17:06:07.477Z,2.50
2022-08-10T17:08:14.854Z,2.70
2022-08-10T17:10:43.013Z,2.90
2022-08-10T17:13:13.799Z,2.45
2022-08-10T17:15:49.059Z,2.83
2022-08-10T17:18:27.660Z,2.25
2022-08-10T17:20:57.136Z,2.55
2022-08-10T17:23:25.943Z,2.72
2022-08-10T17:25:58.740Z,2.40
2022-08-10T17:28:34.585Z,2.75
2022-08-10T17:31:36.124Z,3.10
2022-08-10T17:33:59.956Z,3.20
2022-08-10T17:36:30.144Z,2.45
2022-08-10T17:38:58.615Z,2.55
2022-08-10T17:41:29.365Z,2.70
2022-08-10T17:44:02.543Z,2.97
2022-08-10T17:46:33.422Z,2.95
2022-08-10T17:49:05.991Z,2.72
2022-08-10T17:51:34.338Z,2.50
2022-08-10T17:54:09.040Z,2.63
2022-08-10T17:56:37.915Z,3.40
2022-08-10T17:59:16.896Z,3.17
2022-08-10T18:02:01.922Z,2.85
2022-08-10T18:04:35.597Z,2.90
2022-08-10T18:07:10.896Z,3.00
2022-08-10T18:09:41.089Z,2.33
2022-08-10T18:12:18.055Z,2.70
2022-08-10T18:14:50.292Z,2.75
2022-08-10T18:17:21.742Z,3.13
2022-08-10T18:20:02.049Z,3.40
2022-08-10T18:22:30.531Z,2.95
2022-08-10T18:24:59.877Z,3.00
2022-08-10T18:27:46.588Z,2.35
2022-08-10T18:30:19.421Z,2.67
2022-08-10T18:32:50.033Z,2.78
2022-08-10T18:35:19.139Z,3.78
2022-08-10T18:40:16.041Z,2.80
2022-08-10T18:42:47.299Z,2.78
2022-08-10T18:45:21.323Z,3.10
2022-08-10T18:47:59.538Z,3.22
2022-08-10T18:50:30.660Z,3.17
2022-08-10T18:53:01.280Z,3.20
2022-08-10T18:55:35.467Z,3.40
2022-08-10T18:58:44.256Z,3.65
2022-08-10T19:01:22.164Z,3.92
2022-08-10T19:04:06.728Z,3.40
2022-08-10T19:06:58.852Z,5.05
2022-08-10T19:09:47.629Z,4.13
2022-08-10T19:12:31.699Z,3.55
2022-08-10T19:15:08.768Z,3.08
2022-08-10T19:18:05.576Z,3.50
2022-08-10T19:20:35.435Z,3.28
2022-08-10T19:23:15.515Z,3.10
2022-08-10T19:26:41.078Z,3.55
2022-08-10T19:31:12.376Z,2.92
2022-08-10T19:33:50.121Z,3.63
2022-08-10T19:36:25.661Z,3.10
2022-08-10T19:39:03.430Z,3.25
2022-08-10T19:41:42.194Z,3.40
2022-08-10T19:44:18.674Z,3.35
2022-08-10T19:46:51.728Z,3.45
2022-08-10T19:49:27.325Z,2.78
2022-08-10T19:52:11.055Z,3.40
2022-08-10T19:54:53.495Z,3.13
2022-08-10T19:57:32.656Z,3.33
2022-08-10T20:00:18.971Z,3.28
2022-08-10T20:02:57.166Z,3.63
2022-08-10T20:05:31.672Z,3.60
2022-08-10T20:08:07.897Z,3.58
2022-08-10T20:10:43.342Z,4.13
2022-08-10T20:13:20.567Z,3.10
2022-08-10T20:15:57.978Z,3.40
2022-08-10T20:18:28.886Z,3.60
2022-08-10T20:21:01.310Z,3.53
2022-08-10T20:23:33.821Z,3.38
2022-08-10T20:26:05.484Z,3.42
2022-08-10T20:28:40.090Z,3.28
2022-08-10T20:31:16.979Z,3.13
2022-08-10T20:33:58.763Z,3.05
2022-08-10T20:36:30.869Z,3.22
2022-08-10T20:39:16.530Z,3.17
2022-08-10T20:41:55.472Z,3.05
2022-08-10T20:44:37.844Z,3.42
2022-08-10T20:47:11.572Z,3.00
2022-08-10T20:49:46.944Z,3.35
2022-08-10T20:52:15.009Z,3.78
2022-08-10T20:54:48.760Z,2.92
2022-08-10T20:57:55.682Z,3.60
2022-08-10T21:00:15.706Z,3.22
2022-08-10T21:03:08.628Z,3.45
2022-08-10T21:05:57.823Z,3.53
2022-08-10T21:08:39.522Z,3.53
2022-08-10T21:11:27.489Z,2.97
2022-08-10T21:14:05.272Z,3.03
2022-08-10T21:16:49.480Z,3.70
2022-08-10T21:19:56.840Z,3.40
2022-08-10T21:22:29.397Z,3.30
2022-08-10T21:25:01.751Z,3.25
2022-08-10T21:27:49.309Z,3.50
2022-08-10T21:30:38.089Z,3.47
2022-08-10T21:33:12.027Z,3.42
2022-08-10T21:35:44.998Z,3.67
2022-08-10T21:38:24.270Z,3.20
2022-08-10T21:41:57.450Z,3.20
2022-08-10T21:45:07.973Z,3.25
2022-08-10T21:48:17.183Z,3.58
2022-08-10T21:51:16.388Z,4.05
2022-08-10T21:54:18.602Z,3.78
2022-08-10T21:57:12.357Z,3.63
2022-08-10T22:00:58.286Z,4.30
2022-08-10T22:03:20.605Z,4.00
2022-08-10T22:06:08.910Z,4.38
2022-08-10T22:08:59.226Z,4.22
2022-08-10T22:11:48.947Z,4.32
2022-08-10T22:14:43.767Z,4.10
2022-08-10T22:18:00.178Z,4.43
2022-08-10T22:20:43.557Z,4.72
2022-08-10T22:23:47.902Z,4.57
2022-08-10T22:26:56.557Z,4.30
2022-08-10T22:29:54.064Z,3.95
2022-08-10T22:32:52.178Z,4.03
2022-08-10T22:36:06.538Z,4.18
2022-08-10T22:39:08.923Z,4.82
2022-08-10T22:42:04.807Z,4.50
2022-08-10T22:44:57.312Z,4.78
2022-08-10T22:47:47.209Z,5.00
2022-08-10T22:50:19.409Z,4.10
2022-08-10T22:52:57.394Z,4.63
2022-08-10T22:55:53.680Z,4.25
2022-08-10T22:58:39.043Z,4.60
2022-08-10T23:01:11.897Z,4.25
2022-08-10T23:03:48.032Z,4.53
2022-08-10T23:06:21.581Z,4.43
2022-08-10T23:08:51.229Z,4.25
2022-08-10T23:11:25.261Z,4.85
2022-08-10T23:13:57.453Z,4.50
2022-08-10T23:16:46.691Z,4.10
2022-08-10T23:19:20.704Z,4.80
2022-08-10T23:22:04.709Z,5.03
2022-08-10T23:24:35.089Z,4.82
2022-08-10T23:27:12.355Z,4.75
2022-08-10T23:30:04.062Z,5.18
2022-08-10T23:32:31.110Z,4.53
2022-08-10T23:36:29.929Z,5.30
2022-08-10T23:37:53.580Z,5.20
2022-08-10T23:40:21.775Z,4.80
2022-08-10T23:42:52.317Z,5.43
2022-08-10T23:47:53.454Z,4.93
2022-08-10T23:50:23.618Z,5.25
2022-08-10T23:52:52.551Z,5.13
2022-08-10T23:55:24.869Z,5.00
2022-08-10T23:57:58.038Z,5.03
